This is the latest recevied weather packets stored in our database for station/object KI7YRV. If no packets are shown the sender has not sent any weather packets the latest 10 day(s).
| Time | Temp. | Humidity | Pressure | Rain* | Wind** | Luminosity | Snow |
|---|---|---|---|---|---|---|---|
| 1778275224 | 22.22° C | 33% | 1015 hPa | 0 mm | - | - | - |
| 1778274649 | 22.22° C | 33% | 1015.1 hPa | 0 mm | - | - | - |
| 1778274015 | 22.22° C | 34% | 1015.4 hPa | 0 mm | - | - | - |
| 1778269233 | 21.67° C | 36% | 1016.7 hPa | 0 mm | - | - | - |
| 1778265027 | 20° C | 40% | 1017.8 hPa | 0 mm | - | - | - |
| 1778254216 | 13.89° C | 63% | 1019.7 hPa | 0 mm | - | - | - |
| 1778253640 | 12.78° C | 66% | 1019.7 hPa | 0 mm | - | - | - |
| 1778253025 | 13.33° C | 66% | 1019.7 hPa | 0 mm | - | - | - |
| 1778252449 | 12.78° C | 68% | 1019.8 hPa | 0 mm | - | - | - |
| 1778248818 | 10.56° C | 80% | 1019.8 hPa | 0 mm | - | - | - |
| 1778242230 | 4.44° C | 99% | 1019.5 hPa | 0 mm | - | - | - |
| 1778239236 | 5° C | 99% | 1019.5 hPa | 0 mm | - | - | - |
| 1778237424 | 5° C | 92% | 1019.3 hPa | 0 mm | - | - | - |
| 1778236836 | 5.56° C | 92% | 1019.1 hPa | 0 mm | - | - | - |
| 1778235017 | 6.11° C | 91% | 1018.9 hPa | 0 mm | - | - | - |
| 1778232015 | 6.67° C | 89% | 1019.2 hPa | 0 mm | - | - | - |
| 1778230824 | 6.67° C | 87% | 1019.3 hPa | 0 mm | - | - | - |
| 1778222431 | 7.78° C | 82% | 1020 hPa | 0 mm | - | - | - |
| 1778221818 | 8.33° C | 82% | 1019.9 hPa | 0 mm | - | - | - |
| 1778217631 | 8.89° C | 82% | 1018.5 hPa | 0 mm | - | - | - |
| 1778213419 | 10° C | 78% | 1017.9 hPa | 0 mm | - | - | - |
| 1778209240 | 11.67° C | 67% | 1016.5 hPa | 0 mm | - | - | - |
| 1778204419 | 12.78° C | 64% | 1015 hPa | 0 mm | - | - | - |
| 1778202016 | 14.44° C | 61% | 1014.6 hPa | 0 mm | - | - | - |
| 1778200826 | 15.56° C | 56% | 1014.4 hPa | 0 mm | - | - | - |
* Rain latest hour (hover to see other rain measurements)
** Current wind speed in m/s (hover to see current wind gust speed)